Ana Sayfa
METAR-TAF:

METAR-TAF

Havaalanları :

Altoona, Pensilvanya, Amerika Birleşik Devletleri

Enlem: 40-18-00N, Boylam: 078-19-01W, yükseklik: 458 m

Güncel hava durumu gözlemi

Rapor saat 15:53 UTC de 40 dakika önce yapıldı.
Rüzgar kuzey/kuzeybatıdan 17 kt ve 25 kt'a kadar ani rüzgarlar
Sıcaklık 9°C
Nem 40%
Basınç 1013 hPa
Görüş mesafesi: 16.1 km
5500 ft yükseklikte az bulutlu

METAR: KAOO 021553Z AUTO 33017G25KT 10SM FEW055 09/M04 A2992 RMK AO2 PK WND 32028/1535 SLP139 T00891039

Saat: 12:33 (16:33 UTC)

Tahmin

Rapor saat 15:25 UTC de 1 saat ve 8 dakika önce yapıldı.
Ayın 02'si saat 15 UTC'den ayın 03'si saat 12 UTC'ye kadar geçerli Tahmin
Rüzgar kuzey/kuzeybatıdan 19 kt ve 29 kt'a kadar ani rüzgarlar
Görüş mesafesi: 10 km
Açık gökyüzü
Ayın 02'si saat 1700 UTC'den
Rüzgar kuzeybatıdan 15 kt ve 25 kt'a kadar ani rüzgarlar
Görüş mesafesi: 10 km
4000 ft yükseklikte parçalı bulutlu

TAF: KAOO 021525Z 0215/0312 33019G29KT P6SM SKC FM021700 32015G25KT P6SM SCT040

4.000'den fazla havaalanı için hava durumu gözlemleri ve tahminleri (METAR ve TAF raporları).

Kullanılabilir istasyonlar harita üzerinde sarı ve kırmızı noktalarla gösterilir.

İstasyonun adını görmek için fareyi noktanın üzerinde gezdirin.

Sonrasında hava gözlem ve tahminlerini görmek için tıklayın.

Haritayı değiştirmek için: yaklaştırmak için siyah artı işaretli yeşil düğmeye ve uzaklaştırmak için de eksi işaretli düğmeye hızla tıklayın; bitişik haritalar için yeşil okları kullanın.


METAR-TAF: